Terminal Aerodrome Forecast
Issued by NWS

Home | Current Version | Previous Version | Text Only | Print | Product List | Glossary On
Versions: 1 2 3 4 5 6 7 8 9 10 11 12 13 14 15 16 17 18 19 20 21 22 23 24 25 26 27 28 29 30 31 32 33 34 35 36 37 38 39 40 41 42 43 44 45 46 47 48 49 50
000
FTUS42 KMFL 261757 CCA
TAFMIA
TAF COR
KMIA 261757Z 2618/2718 15010KT P6SM VCTS SCT030CB
     FM270000 VRB05KT P6SM VCSH SCT025 PROB30 2714/2718 6SM TSRA
      SCT025CB=

USA.gov is the U.S. government's official web portal to all federal, state and local government web resources and services.